AirNav   Jet Aviation Boston
 
 570 users online  

0CD2 Foxx Valley Airport
Yoder, Colorado, USA

GOING TO YODER?


FAA INFORMATION EFFECTIVE 26 APRIL 2018

Location

FAA Identifier: 0CD2
Lat/Long: 38-39-09.0000N / 104-14-04.2000W
38-39.150000N / 104-14.070000W
38.6525000 / -104.2345000
(estimated)
Elevation: 5800 ft. / 1768 m (estimated)
From city: 14 miles S of YODER, CO
Time zone: UTC -6 (UTC -7 during Standard Time)
Zip code: 80864

Airport Operations

Airport use: Private use. Permission required prior to landing
Activation date: 05/2006
Control tower: no
ARTCC: DENVER CENTER
FSS: DENVER FLIGHT SERVICE STATION
Attendance: UNATNDD
Wind indicator: yes
Segmented circle: no

Airport Communications

WX ASOS at CO90 (7 nm NW): 121.425 (719-683-3346)

Nearby radio navigation aids

VOR radial/distance  VOR name  Freq  Var
PUBr015/23.4PUEBLO VORTAC116.7008E
FCSr082/24.5BUTTS VOR/DME108.8012E
BRKr125/25.6BLACK FOREST VOR/DME112.5008E
HGOr244/30.4HUGO VOR/DME112.1007E

 
NDB name  Hdg/Dist  Freq  Var  ID
IRONHORSE082/24.333512EIHS .. .... ...

Airport Services

Runway Information

Runway 17/35

Dimensions: 5000 x 100 ft. / 1524 x 30 m
Surface: turf, in fair condition
RUNWAY 17  RUNWAY 35
Traffic pattern: leftleft
Obstructions: 5 ft. fence, marked, 30 ft. from runway30 ft. pline, marked, 250 ft. from runway

Runway 8/26

Dimensions: 2500 x 50 ft. / 762 x 15 m
Surface: turf, in poor condition
RUNWAY 8  RUNWAY 26
Traffic pattern: leftleft
Obstructions: 30 ft. pline, 110 ft. from runway5 ft. fence, marked, 30 ft. from runway

Airport Ownership and Management from official FAA records

Ownership: Privately-owned
Owner: ROBERT LEE WILSON
12575 SOUTH LAUPPE ROAD
YODER, CO 80864
Phone 719-478-2323
Manager: ROBERT LEE WILSON
12575 SOUTH LAUPPE ROAD
YODER, CO 80864
Phone 719-478-2323

Airport Operational Statistics

Aircraft based on the field: 1
Single engine airplanes: 1
    

Additional Remarks

OWNER DESIRES CHARTING.

Instrument Procedures

There are no published instrument procedures at 0CD2.

Some nearby airports with instrument procedures:

KCOS - City of Colorado Springs Municipal Airport (24 nm NW)
KPUB - Pueblo Memorial Airport (25 nm SW)
1V6 - Fremont County Airport (43 nm W)
KLHX - La Junta Municipal Airport (50 nm SE)
KAPA - Centennial Airport (62 nm NW)
 
Loc | Ops | Rwys | IFR | FBO | Links
Com | Nav | Svcs | Stats | Notes

AirNav Hotels Sweepstakes
 
Area around 0CD2 (Foxx Valley Airport)
 
Road maps at: MapQuest Bing Google
 
Aerial photo
No photo
 
Sectional chart

 
Airport distance calculator
Flying to Foxx Valley Airport? Find the distance to fly.

From to 0CD2

Sunrise and sunset
Times for 22-May-2018
 Local
(UTC-6)
 Zulu
(UTC)
Morning civil twilight05:1011:10
Sunrise05:4011:40
Sunset20:0702:07
Evening civil twilight20:3702:37

Current date and time
Zulu (UTC)  22-May-2018 11:14:11
Local (UTC-6)  22-May-2018 05:14:11
 
METAR
KFLY 
24nm NW 
221055Z AUTO 33006KT 10SM CLR 09/02 A3005 RMK AO2 T00930023
KCOS 
25nm NW 
221054Z 32005KT 10SM BKN250 10/04 A3003 RMK AO2 SLP102 T01000039
KFCS 
25nm W 
221058Z AUTO 33009KT 10SM CLR 09/03 A2999 RMK AO2 SLP118 T00860034 $
KPUB 
25nm SW 
221053Z AUTO 30004KT 10SM CLR 08/02 A2995 RMK AO2 SLP100 T00830022
KAFF 
33nm NW 
221058Z AUTO 01009KT 10SM CLR 06/03 A3003 RMK AO2 SLP112 T00550030
KMNH 
39nm NW 
221054Z AUTO 24003KT 10SM CLR 05/01 A3008 RMK AO2
K1V6 
43nm W 
221050Z AUTO 28011G14KT 10SM CLR 13/03 A2998 RMK AO2
KLIC 
45nm NE 
221055Z AUTO 15006KT 10SM CLR 08/04 A3000 RMK AO2 SLP095 T00780044
TAF
KCOS 
25nm NW 
220523Z 2206/2306 02008KT P6SM SCT100 BKN200 FM220900 06006KT P6SM SCT200 FM221800 17015G25KT P6SM SCT100 BKN200 FM230200 19012KT P6SM FEW100 BKN200
KFCS 
25nm W 
220502Z 2205/2311 24009KT 9999 FEW250 QNH3000INS BECMG 2214/2215 29009KT 9999 FEW150 QNH2999INS BECMG 2220/2221 21009KT 8000 -SHRA VCTS SCT060CB BKN200 QNH2992INS TEMPO 2221/2224 VRB15G25KT BECMG 2305/2306 33009KT 9999 NSW FEW100 QNH2998INS TX25/2221Z TN11/2212Z
KPUB 
25nm SW 
220523Z 2206/2306 29007KT P6SM SCT120 BKN200 FM221900 17012G22KT P6SM SCT100 BKN200 FM230200 19012KT P6SM FEW100 BKN200
NOTAMs
Click for the latest NOTAMs
NOTAMs are issued by the DoD/FAA and will open in a separate window not controlled by AirNav.

 

 
 

Would you like to see your business listed on this page?

 If your business provides an interesting product or service to pilots, flight crews, aircraft, or users of the Foxx Valley Airport, you should consider listing it here.  To start the listing process, click on the button below
 
Add a business
 

Other Pages about Foxx Valley Airport

Update a link
 
Copyright © AirNav, LLC. All rights reserved. Privacy Policy  Contact